Time;durP1;ratioP1;P1;durP2;ratioP2;P2;SDS_P1;SDS_P2;PMS_P1;PMS_P2;Temp;Humidity;BMP_temperature;BMP_pressure;BME280_temperature;BME280_humidity;BME280_pressure;Samples;Min_cycle;Max_cycle;Signal;HPM_P1;HPM_P2
2021/12/13 00:01:45;;;;;;;9.27;8.03;;;4.70;99.90;;;5.35;100.00;-19909.06;5072830;28;20188;-70
2021/12/13 00:04:23;;;;;;;10.27;9.17;;;4.60;99.90;;;5.35;100.00;-19908.88;5073159;28;20181;-68
2021/12/13 00:06:58;;;;;;;9.53;8.53;;;4.70;99.90;;;5.23;100.00;-19904.78;5089445;28;20279;-69
2021/12/13 00:09:29;;;;;;;9.97;8.30;;;4.60;99.90;;;5.21;100.00;-19904.28;5093385;28;20180;-68
2021/12/13 00:12:02;;;;;;;9.70;8.70;;;4.60;99.90;;;5.57;100.00;-19916.56;5093136;28;20270;-69
2021/12/13 00:14:35;;;;;;;11.00;9.27;;;4.60;99.90;;;5.34;100.00;-19908.72;5093449;28;20188;-69
2021/12/13 00:17:07;;;;;;;9.90;8.70;;;4.70;99.90;;;5.41;100.00;-19910.94;5092697;28;20214;-68
2021/12/13 00:19:42;;;;;;;12.63;9.70;;;4.60;99.90;;;5.52;100.00;-19914.69;5093194;28;20190;-69
2021/12/13 00:22:19;;;;;;;10.40;8.90;;;4.70;99.90;;;5.43;100.00;-19911.63;5093276;28;20274;-69
2021/12/13 00:24:52;;;;;;;10.43;8.50;;;4.70;99.90;;;5.36;100.00;-19909.41;5092924;28;20193;-69
2021/12/13 00:27:26;;;;;;;10.63;8.83;;;4.70;99.90;;;5.34;100.00;-19908.72;5092811;28;20189;-68
2021/12/13 00:30:04;;;;;;;12.00;10.17;;;4.60;99.90;;;5.42;100.00;-19911.28;5093079;28;20189;-69
2021/12/13 00:32:48;;;;;;;11.47;9.70;;;4.70;99.90;;;5.42;100.00;-19911.28;5092783;28;20237;-69
2021/12/13 00:35:24;;;;;;;11.77;10.30;;;4.70;99.90;;;5.31;100.00;-19907.69;5093369;28;20270;-69
2021/12/13 00:38:02;;;;;;;12.93;10.70;;;4.60;99.90;;;5.30;100.00;-19907.19;5089707;28;20624;-69
2021/12/13 00:40:36;;;;;;;12.87;10.93;;;4.60;99.90;;;5.46;100.00;-19912.81;5093933;28;20566;-69
2021/12/13 00:43:15;;;;;;;13.13;10.97;;;4.70;99.90;;;5.33;100.00;-19908.38;5092979;28;20635;-69
2021/12/13 00:45:54;;;;;;;11.97;10.10;;;4.70;99.90;;;5.32;100.00;-19907.84;5093096;28;20298;-69
2021/12/13 00:48:25;;;;;;;12.50;10.10;;;4.60;99.90;;;5.32;100.00;-19907.84;5092966;28;20186;-70
2021/12/13 00:51:01;;;;;;;11.50;10.07;;;4.60;99.90;;;5.40;100.00;-19910.75;5092775;28;20632;-68
2021/12/13 00:53:36;;;;;;;12.33;10.43;;;4.60;99.90;;;5.42;100.00;-19911.44;5092887;28;20211;-69
2021/12/13 00:56:56;;;;;;;12.23;9.97;;;4.70;99.90;;;5.34;100.00;-19908.53;5092464;28;20302;-70
2021/12/13 00:59:28;;;;;;;11.37;9.67;;;4.70;99.90;;;5.41;100.00;-19910.94;5072346;28;20184;-69
2021/12/13 01:02:06;;;;;;;11.80;10.40;;;4.70;99.90;;;5.41;100.00;-19911.09;5072105;28;20189;-69
2021/12/13 01:05:05;;;;;;;12.20;10.10;;;4.70;99.90;;;5.36;100.00;-19909.41;5072162;28;20249;-70
2021/12/13 01:08:15;;;;;;;11.50;9.90;;;4.70;99.90;;;5.38;100.00;-19910.06;5071690;28;20552;-70
2021/12/13 01:11:27;;;;;;;11.93;9.27;;;4.70;99.90;;;5.40;100.00;-19910.59;5071918;28;20232;-70
2021/12/13 01:14:19;;;;;;;12.70;10.37;;;4.70;99.90;;;5.45;100.00;-19912.47;5056896;28;20206;-70
2021/12/13 01:17:00;;;;;;;11.23;9.53;;;4.70;99.90;;;5.40;100.00;-19910.75;5076255;28;20204;-70
2021/12/13 01:19:47;;;;;;;12.13;9.93;;;4.70;99.90;;;5.37;100.00;-19909.56;5076600;28;20229;-70
2021/12/13 01:22:42;;;;;;;12.47;9.83;;;4.70;99.90;;;5.48;100.00;-19913.34;5076204;28;20218;-69
2021/12/13 01:25:37;;;;;;;12.23;9.53;;;4.70;99.90;;;5.41;100.00;-19911.09;5076264;28;20202;-68
2021/12/13 01:28:14;;;;;;;13.20;10.50;;;4.70;99.90;;;5.45;100.00;-19912.31;5076209;28;20287;-70
2021/12/13 01:30:51;;;;;;;12.00;9.67;;;4.70;99.90;;;5.54;100.00;-19915.56;5076385;28;20280;-71
2021/12/13 01:33:22;;;;;;;12.30;9.57;;;4.90;99.90;;;5.55;100.00;-19915.72;5075782;28;20653;-70
2021/12/13 01:35:56;;;;;;;11.77;10.10;;;4.80;99.90;;;5.49;100.00;-19913.66;5082755;28;20295;-70
2021/12/13 01:38:33;;;;;;;14.30;10.90;;;4.70;99.90;;;5.44;100.00;-19911.97;5096336;28;20234;-70
2021/12/13 01:41:08;;;;;;;13.97;11.80;;;4.70;99.90;;;5.62;100.00;-19918.13;5096268;28;20187;-70
2021/12/13 01:43:48;;;;;;;13.80;10.60;;;4.80;99.90;;;5.64;100.00;-19918.97;5096262;28;20219;-70
2021/12/13 01:46:16;;;;;;;11.40;9.87;;;4.80;99.90;;;5.54;100.00;-19915.38;5096242;28;20191;-70
2021/12/13 01:48:49;;;;;;;12.90;10.43;;;4.80;99.90;;;5.57;100.00;-19916.41;5075779;28;20200;-70
2021/12/13 01:51:24;;;;;;;14.07;11.10;;;4.80;99.90;;;5.65;100.00;-19919.16;5085539;28;20195;-69
2021/12/13 01:53:59;;;;;;;14.17;10.80;;;4.80;99.90;;;5.56;100.00;-19916.25;5095516;28;20701;-70
2021/12/13 01:56:42;;;;;;;15.43;12.13;;;4.80;99.90;;;5.51;100.00;-19914.34;5095782;28;20226;-70
2021/12/13 02:02:24;;;;;;;13.70;10.63;;;4.80;99.90;;;5.65;100.00;-19919.16;5075583;28;20184;-70
2021/12/13 02:05:04;;;;;;;13.67;10.67;;;4.90;99.90;;;5.72;100.00;-19921.53;5075675;28;20196;-69
2021/12/13 02:07:43;;;;;;;13.07;10.73;;;4.90;99.90;;;5.52;100.00;-19914.88;5095248;28;20627;-69
2021/12/13 02:10:18;;;;;;;12.43;10.17;;;4.80;99.90;;;5.64;100.00;-19918.78;5095328;28;20290;-70
2021/12/13 02:12:54;;;;;;;14.67;11.23;;;4.80;99.90;;;5.67;100.00;-19920.00;5095842;28;20188;-70
2021/12/13 02:18:17;;;;;;;12.60;10.23;;;4.90;99.90;;;5.62;100.00;-19918.28;5095785;28;20219;-69
2021/12/13 02:20:52;;;;;;;13.37;11.07;;;4.90;99.90;;;5.56;100.00;-19916.25;5095310;28;20222;-69
2021/12/13 02:23:23;;;;;;;12.40;9.43;;;4.80;99.90;;;5.50;100.00;-19914.00;5095490;28;20239;-70
2021/12/13 02:25:55;;;;;;;12.13;9.90;;;4.80;99.90;;;5.62;100.00;-19918.28;5095172;28;20185;-69
2021/12/13 02:28:28;;;;;;;12.67;9.93;;;4.80;99.90;;;5.58;100.00;-19916.75;5095379;28;20224;-70
2021/12/13 02:31:02;;;;;;;14.40;10.60;;;4.90;99.90;;;5.53;100.00;-19915.22;5094974;28;20275;-70
2021/12/13 02:33:36;;;;;;;13.67;10.53;;;4.90;99.90;;;5.52;100.00;-19914.88;5094625;28;20709;-69
2021/12/13 02:36:12;;;;;;;14.17;10.80;;;4.90;99.90;;;5.56;100.00;-19916.25;5094592;28;20642;-70
2021/12/13 02:38:46;;;;;;;14.47;11.20;;;4.90;99.90;;;5.66;100.00;-19919.47;5094900;28;20239;-70
2021/12/13 02:41:19;;;;;;;15.97;11.63;;;4.90;99.90;;;5.60;100.00;-19917.44;5094748;28;20188;-70
2021/12/13 02:44:04;;;;;;;12.47;10.40;;;4.90;99.90;;;5.62;100.00;-19918.13;5094835;28;20206;-70
2021/12/13 02:46:33;;;;;;;18.13;12.80;;;4.90;99.90;;;5.72;100.00;-19921.69;5094655;28;20294;-69
2021/12/13 02:49:06;;;;;;;13.83;11.00;;;4.90;99.90;;;5.71;100.00;-19921.19;5094647;28;20291;-69
2021/12/13 02:51:41;;;;;;;13.40;10.60;;;4.90;99.90;;;5.72;100.00;-19921.69;5094228;28;20223;-69
2021/12/13 02:54:17;;;;;;;14.07;11.47;;;4.90;99.90;;;5.69;100.00;-19920.69;5094125;28;20602;-70
2021/12/13 02:56:51;;;;;;;14.83;12.70;;;4.90;99.90;;;5.64;100.00;-19918.78;5094604;28;20270;-69
2021/12/13 02:59:23;;;;;;;14.90;10.97;;;4.90;99.90;;;5.62;100.00;-19918.13;5094034;28;20762;-69
2021/12/13 03:01:58;;;;;;;16.23;11.87;;;4.90;99.90;;;5.63;100.00;-19918.47;5094673;28;20176;-70
2021/12/13 03:04:29;;;;;;;13.40;10.20;;;4.90;99.90;;;5.77;100.00;-19923.25;5094460;28;20192;-69
2021/12/13 03:07:04;;;;;;;16.53;13.50;;;5.00;99.90;;;5.80;100.00;-19924.28;5093983;28;20566;-69
2021/12/13 03:09:38;;;;;;;15.13;11.70;;;5.00;99.90;;;5.80;100.00;-19924.44;5094016;28;20176;-68
2021/12/13 03:12:11;;;;;;;12.87;10.23;;;5.00;99.90;;;5.75;100.00;-19922.56;5094550;28;20184;-68
2021/12/13 03:14:43;;;;;;;11.90;9.60;;;5.00;99.90;;;5.75;100.00;-19922.72;5095476;28;20219;-69
2021/12/13 03:17:20;;;;;;;11.77;9.63;;;5.00;99.90;;;5.93;100.00;-19928.72;5096175;28;20195;-69
2021/12/13 03:20:22;;;;;;;11.90;9.83;;;5.10;99.90;;;5.87;100.00;-19926.66;5096247;28;20187;-70
2021/12/13 03:23:25;;;;;;;12.00;9.67;;;5.00;99.90;;;5.91;100.00;-19928.03;5097175;28;20281;-69
2021/12/13 03:26:54;;;;;;;10.57;8.70;;;5.10;99.90;;;5.79;100.00;-19924.09;5085356;28;20199;-70
2021/12/13 03:29:40;;;;;;;11.97;9.03;;;5.10;99.90;;;5.74;100.00;-19922.38;5096108;28;20203;-69
2021/12/13 03:32:14;;;;;;;12.07;9.60;;;5.10;99.90;;;5.77;100.00;-19923.25;5096070;28;20232;-69
2021/12/13 03:34:57;;;;;;;12.43;9.63;;;5.10;99.90;;;5.76;100.00;-19922.91;5095769;28;20604;-69
2021/12/13 03:37:25;;;;;;;12.93;9.93;;;5.10;99.90;;;5.80;100.00;-19924.28;5095667;28;20698;-71
2021/12/13 03:39:59;;;;;;;12.43;9.63;;;5.10;99.90;;;5.84;100.00;-19925.81;5087262;28;20218;-69
2021/12/13 03:42:36;;;;;;;14.10;10.67;;;5.10;99.90;;;5.88;100.00;-19927.19;5074404;28;20630;-69
2021/12/13 03:45:15;;;;;;;13.50;10.23;;;5.10;99.90;;;5.81;100.00;-19924.59;5074754;28;20499;-70
2021/12/13 03:47:50;;;;;;;17.30;12.87;;;5.10;99.90;;;5.82;100.00;-19925.13;5075522;28;20295;-69
2021/12/13 03:50:22;;;;;;;16.37;11.63;;;5.10;99.90;;;5.85;100.00;-19926.16;5074583;28;20188;-69
2021/12/13 03:52:56;;;;;;;16.93;12.23;;;5.10;99.90;;;5.89;100.00;-19927.53;5075179;28;20188;-70
2021/12/13 03:55:29;;;;;;;17.10;13.37;;;5.10;99.90;;;5.92;100.00;-19928.38;5075001;28;20184;-69
2021/12/13 03:58:04;;;;;;;17.07;13.87;;;5.10;99.90;;;5.92;100.00;-19928.53;5086683;28;20218;-70
2021/12/13 04:00:39;;;;;;;15.77;12.67;;;5.10;99.90;;;5.93;100.00;-19928.88;5096127;28;20198;-69
2021/12/13 04:03:14;;;;;;;16.07;12.30;;;5.20;99.90;;;5.94;100.00;-19929.22;5096508;28;20214;-70
2021/12/13 04:05:45;;;;;;;15.87;12.90;;;5.20;99.90;;;5.96;100.00;-19929.75;5095211;28;20219;-70
2021/12/13 04:08:17;;;;;;;17.27;12.67;;;5.20;99.90;;;5.96;100.00;-19929.91;5095755;28;20188;-69
2021/12/13 04:10:53;;;;;;;17.63;12.43;;;5.20;99.90;;;6.12;100.00;-19935.38;5095616;28;20246;-70
2021/12/13 04:13:27;;;;;;;14.63;10.97;;;5.20;99.90;;;6.02;100.00;-19931.78;5094230;28;20562;-70
2021/12/13 04:16:08;;;;;;;15.33;11.77;;;5.20;99.90;;;5.98;100.00;-19930.59;5094032;28;20191;-70
2021/12/13 04:19:06;;;;;;;17.83;13.57;;;5.20;99.90;;;6.02;100.00;-19931.78;5094908;28;20207;-69
2021/12/13 04:21:42;;;;;;;14.67;10.03;;;5.20;99.90;;;5.98;100.00;-19930.44;5093084;28;20204;-70
2021/12/13 04:24:16;;;;;;;15.47;11.40;;;5.30;99.90;;;5.95;100.00;-19929.41;5093060;28;20299;-70
2021/12/13 04:27:02;;;;;;;17.20;11.73;;;5.20;99.90;;;6.01;100.00;-19931.63;5092606;28;20624;-71
2021/12/13 04:29:38;;;;;;;17.03;11.63;;;5.30;99.90;;;6.09;100.00;-19934.19;5093465;28;20176;-68
2021/12/13 04:32:16;;;;;;;14.97;10.83;;;5.30;99.90;;;6.05;100.00;-19932.81;5092632;28;20239;-69
2021/12/13 04:34:45;;;;;;;17.70;12.80;;;5.30;99.90;;;6.13;100.00;-19935.56;5092658;28;20191;-71
2021/12/13 04:37:17;;;;;;;16.20;11.87;;;5.30;99.90;;;6.19;100.00;-19937.59;5092377;28;20203;-69
2021/12/13 04:39:51;;;;;;;16.67;12.43;;;5.30;99.90;;;6.06;100.00;-19933.16;5092671;28;20709;-70
2021/12/13 04:42:23;;;;;;;18.17;12.23;;;5.30;99.90;;;6.08;100.00;-19933.84;5092832;28;20207;-70
2021/12/13 04:45:01;;;;;;;17.83;12.47;;;5.30;99.90;;;6.10;100.00;-19934.53;5092917;28;20208;-69
2021/12/13 04:47:37;;;;;;;19.23;13.30;;;5.30;99.90;;;6.10;100.00;-19934.69;5092645;28;20187;-69
2021/12/13 04:50:14;;;;;;;22.10;14.83;;;5.30;99.90;;;6.34;100.00;-19942.72;5092084;28;20211;-70
2021/12/13 04:52:45;;;;;;;22.27;14.93;;;5.40;99.90;;;6.18;100.00;-19937.25;5092763;28;20292;-69
2021/12/13 04:55:18;;;;;;;21.33;16.03;;;5.40;99.90;;;6.16;100.00;-19936.75;5092762;28;20537;-70
2021/12/13 04:57:50;;;;;;;24.93;16.67;;;5.40;99.90;;;6.08;100.00;-19933.84;5092165;28;20205;-69
2021/12/13 05:00:33;;;;;;;26.70;18.77;;;5.30;99.90;;;6.16;100.00;-19936.56;5092297;28;20221;-71
2021/12/13 05:03:07;;;;;;;24.13;16.53;;;5.30;99.90;;;6.05;100.00;-19932.81;5092141;28;20196;-69
2021/12/13 05:05:40;;;;;;;26.23;16.33;;;5.30;99.90;;;6.08;100.00;-19933.84;5092336;28;20271;-69
2021/12/13 05:08:14;;;;;;;28.00;17.40;;;5.40;99.90;;;6.05;100.00;-19932.97;5092390;28;20204;-70
2021/12/13 05:10:47;;;;;;;24.10;17.83;;;5.30;99.90;;;6.04;100.00;-19932.47;5092350;28;20191;-70
2021/12/13 05:13:19;;;;;;;24.77;16.97;;;5.40;99.90;;;6.15;100.00;-19936.41;5092226;28;20654;-69
2021/12/13 05:15:59;;;;;;;23.47;16.00;;;5.40;99.90;;;6.18;100.00;-19937.25;5092125;28;20302;-70
2021/12/13 05:18:32;;;;;;;23.13;14.77;;;5.40;99.90;;;6.22;100.00;-19938.63;5092271;28;20180;-70
2021/12/13 05:21:08;;;;;;;23.23;15.10;;;5.40;99.90;;;6.21;100.00;-19938.28;5092348;28;20291;-69
2021/12/13 05:23:48;;;;;;;23.03;16.27;;;5.50;99.90;;;6.31;100.00;-19941.69;5092006;28;20222;-71
2021/12/13 05:26:32;;;;;;;21.83;16.00;;;5.50;99.90;;;6.29;100.00;-19941.03;5092417;28;20271;-71
2021/12/13 05:29:01;;;;;;;21.67;14.97;;;5.50;99.90;;;6.21;100.00;-19938.28;5092512;28;20234;-70
2021/12/13 05:31:32;;;;;;;23.17;16.47;;;5.50;99.90;;;6.13;100.00;-19935.56;5091943;28;20196;-69
2021/12/13 05:34:06;;;;;;;27.00;16.97;;;5.50;99.90;;;6.21;100.00;-19938.28;5092231;28;20214;-70
2021/12/13 05:36:37;;;;;;;28.97;17.03;;;5.50;99.90;;;6.19;100.00;-19937.78;5092161;28;20202;-70
2021/12/13 05:39:12;;;;;;;25.20;15.57;;;5.50;99.90;;;6.41;100.00;-19945.13;5092135;28;20223;-69
2021/12/13 05:41:51;;;;;;;24.63;15.17;;;5.50;99.90;;;6.37;100.00;-19943.75;5092264;28;20179;-69
2021/12/13 05:44:26;;;;;;;21.43;14.27;;;5.50;99.90;;;6.29;100.00;-19941.03;5092154;28;20279;-69
2021/12/13 05:46:57;;;;;;;22.23;14.83;;;5.60;99.90;;;6.50;100.00;-19948.19;5091820;28;20182;-70
2021/12/13 05:49:30;;;;;;;23.17;15.07;;;5.60;99.90;;;6.39;100.00;-19944.44;5092325;28;20199;-70
2021/12/13 05:52:09;;;;;;;28.57;18.93;;;5.60;99.90;;;6.49;100.00;-19947.69;5091803;28;20757;-70
2021/12/13 05:54:42;;;;;;;29.47;18.97;;;5.60;99.90;;;6.47;100.00;-19947.00;5092271;28;20239;-69
2021/12/13 05:57:16;;;;;;;28.83;19.43;;;5.60;99.90;;;6.33;100.00;-19942.38;5092088;28;20188;-69
2021/12/13 06:00:00;;;;;;;31.97;22.27;;;5.60;99.90;;;6.40;100.00;-19944.59;5092015;28;20200;-69
2021/12/13 06:03:03;;;;;;;33.33;22.10;;;5.60;99.90;;;6.43;100.00;-19945.81;5095828;28;20184;-70
2021/12/13 06:05:38;;;;;;;36.77;23.77;;;5.60;99.90;;;6.33;100.00;-19942.38;5095890;28;20184;-69
2021/12/13 06:08:11;;;;;;;37.70;24.03;;;5.60;99.90;;;6.30;100.00;-19941.38;5095650;28;20192;-70
2021/12/13 06:10:49;;;;;;;30.90;20.70;;;5.60;99.90;;;6.30;100.00;-19941.38;5095666;28;20216;-70
2021/12/13 06:13:56;;;;;;;32.57;21.80;;;5.60;99.90;;;6.50;100.00;-19948.03;5095751;28;20270;-70
2021/12/13 06:16:48;;;;;;;32.07;20.47;;;5.60;99.90;;;6.38;100.00;-19943.94;5094102;28;20215;-70
2021/12/13 06:19:30;;;;;;;28.77;18.97;;;5.60;99.90;;;6.42;100.00;-19945.47;5074870;28;20592;-70
2021/12/13 06:22:11;;;;;;;31.10;19.40;;;5.70;99.90;;;6.47;100.00;-19947.19;5075034;28;20216;-70
2021/12/13 06:24:42;;;;;;;29.03;19.23;;;5.70;99.90;;;6.70;100.00;-19955.03;5074617;28;20191;-70
2021/12/13 06:27:17;;;;;;;27.70;18.83;;;5.80;99.90;;;6.50;100.00;-19948.03;5089657;28;20291;-71
2021/12/13 06:30:05;;;;;;;25.73;18.87;;;5.70;99.90;;;6.48;100.00;-19947.50;5095006;28;20308;-70
2021/12/13 06:32:42;;;;;;;29.37;19.20;;;5.70;99.90;;;6.54;100.00;-19949.56;5094586;28;20307;-70
2021/12/13 06:35:52;;;;;;;28.17;19.80;;;5.70;99.90;;;6.43;100.00;-19945.81;5095237;28;20207;-69
2021/12/13 06:38:50;;;;;;;31.73;19.83;;;5.70;99.90;;;6.47;100.00;-19947.00;5094452;28;20611;-69
2021/12/13 06:41:39;;;;;;;34.30;22.13;;;5.70;99.90;;;6.59;100.00;-19951.09;5094518;28;20552;-69
2021/12/13 06:44:18;;;;;;;31.23;21.10;;;5.80;99.90;;;6.51;100.00;-19948.53;5094857;28;20336;-69
2021/12/13 06:46:56;;;;;;;33.63;22.53;;;5.80;99.90;;;6.49;100.00;-19947.84;5094876;28;20309;-69
2021/12/13 06:49:34;;;;;;;35.87;23.73;;;5.80;99.90;;;6.59;100.00;-19951.09;5094766;28;20185;-69
2021/12/13 06:52:09;;;;;;;33.70;22.27;;;5.80;99.90;;;6.66;100.00;-19953.50;5094712;28;20275;-67
2021/12/13 06:54:43;;;;;;;38.03;25.27;;;5.80;99.90;;;6.66;100.00;-19953.66;5094585;28;20271;-69
2021/12/13 06:57:16;;;;;;;38.90;25.70;;;5.80;99.90;;;6.59;100.00;-19951.28;5094376;28;20196;-69
2021/12/13 06:59:54;;;;;;;39.80;26.53;;;5.80;99.90;;;6.61;100.00;-19951.97;5094513;28;20291;-69
2021/12/13 07:02:26;;;;;;;33.83;23.40;;;5.80;99.90;;;6.60;100.00;-19951.63;5094614;28;20189;-69
2021/12/13 07:05:03;;;;;;;35.10;22.53;;;5.80;99.90;;;6.55;100.00;-19949.72;5093783;28;20275;-69
2021/12/13 07:07:41;;;;;;;37.13;23.97;;;5.80;99.90;;;6.60;100.00;-19951.63;5074583;28;20265;-69
2021/12/13 07:10:16;;;;;;;35.83;22.90;;;5.80;99.90;;;6.59;100.00;-19951.28;5073582;28;20292;-68
2021/12/13 07:12:50;;;;;;;37.60;22.97;;;5.80;99.90;;;6.64;100.00;-19952.81;5072745;28;20647;-68
2021/12/13 07:15:27;;;;;;;36.83;24.60;;;5.90;99.90;;;6.64;100.00;-19952.97;5073926;28;20192;-68
2021/12/13 07:18:17;;;;;;;39.67;23.07;;;5.90;99.90;;;6.75;100.00;-19956.56;5073865;28;20280;-68
2021/12/13 07:20:51;;;;;;;35.43;22.07;;;5.90;99.90;;;6.82;100.00;-19959.13;5073653;28;20212;-69
2021/12/13 07:23:21;;;;;;;32.27;20.27;;;5.90;99.90;;;6.74;100.00;-19956.22;5080599;28;20241;-66
2021/12/13 07:25:54;;;;;;;38.73;23.47;;;5.90;99.90;;;6.68;100.00;-19954.34;5088984;28;20228;-63
2021/12/13 07:28:33;;;;;;;36.30;21.87;;;6.00;99.90;;;6.75;100.00;-19956.56;5087657;28;20192;-62
2021/12/13 07:31:05;;;;;;;38.10;22.70;;;5.90;99.90;;;6.73;100.00;-19955.88;5071026;28;20204;-69
2021/12/13 07:33:40;;;;;;;38.47;23.13;;;6.00;99.90;;;6.82;100.00;-19958.97;5070599;28;20226;-68
2021/12/13 07:36:19;;;;;;;39.27;23.77;;;6.00;99.90;;;6.95;100.00;-19963.41;5070980;28;20181;-68
2021/12/13 07:38:52;;;;;;;41.33;22.87;;;6.00;99.90;;;6.91;100.00;-19962.22;5070899;28;20228;-68
2021/12/13 07:41:21;;;;;;;35.90;23.30;;;6.10;99.90;;;6.93;100.00;-19962.91;5069954;28;20678;-67
2021/12/13 07:43:49;;;;;;;42.97;25.23;;;6.10;99.90;;;6.91;100.00;-19962.22;5070620;28;20228;-67
2021/12/13 07:46:31;;;;;;;43.13;24.50;;;6.10;99.90;;;7.19;100.00;-19971.59;5076435;28;20374;-68
2021/12/13 07:49:04;;;;;;;42.70;24.97;;;6.20;99.90;;;7.15;100.00;-19970.41;5090856;28;20180;-67
2021/12/13 07:51:37;;;;;;;43.77;25.43;;;6.20;99.90;;;7.21;100.00;-19972.28;5090847;28;20216;-66
2021/12/13 07:54:13;;;;;;;43.33;25.40;;;6.20;99.90;;;7.17;100.00;-19971.09;5090242;28;20192;-66
2021/12/13 07:56:49;;;;;;;43.50;25.40;;;6.30;99.90;;;7.05;100.00;-19967.00;5090401;28;20237;-69
2021/12/13 07:59:25;;;;;;;46.23;25.43;;;6.20;99.90;;;7.05;100.00;-19966.81;5090377;28;20286;-70
2021/12/13 08:01:59;;;;;;;44.67;24.97;;;6.30;99.90;;;7.05;100.00;-19967.00;5090309;28;20295;-71
2021/12/13 08:04:32;;;;;;;38.40;22.47;;;6.30;99.90;;;7.13;100.00;-19969.72;5090369;28;20241;-69
2021/12/13 08:07:09;;;;;;;41.23;22.80;;;6.30;99.90;;;7.10;100.00;-19968.53;5089881;28;20678;-70
2021/12/13 08:09:47;;;;;;;40.20;23.23;;;6.30;99.90;;;7.11;100.00;-19969.03;5089492;28;20559;-70
2021/12/13 08:12:20;;;;;;;40.77;22.37;;;6.30;99.90;;;7.17;100.00;-19971.09;5090293;28;20184;-69
2021/12/13 08:14:52;;;;;;;38.57;23.23;;;6.30;99.90;;;7.19;100.00;-19971.59;5089782;28;20548;-70
2021/12/13 08:17:25;;;;;;;38.17;23.57;;;6.30;99.90;;;7.25;100.00;-19973.84;5089718;28;20180;-70
2021/12/13 08:19:58;;;;;;;46.33;24.30;;;6.40;99.90;;;7.30;100.00;-19975.53;5089919;28;20271;-70
2021/12/13 08:22:30;;;;;;;39.40;21.87;;;6.40;99.90;;;7.28;100.00;-19974.84;5069844;28;20229;-71
2021/12/13 08:25:04;;;;;;;41.93;24.17;;;6.40;99.90;;;7.21;100.00;-19972.47;5078447;28;20232;-64
2021/12/13 08:27:41;;;;;;;41.63;23.67;;;6.40;99.90;;;7.23;100.00;-19973.16;5089487;28;20199;-64
2021/12/13 08:30:15;;;;;;;42.63;24.33;;;6.40;99.90;;;7.34;100.00;-19976.91;5089359;28;20223;-63
2021/12/13 08:33:10;;;;;;;45.87;24.77;;;6.50;99.90;;;7.34;100.00;-19976.72;5089009;28;20642;-67
2021/12/13 08:35:51;;;;;;;42.17;23.23;;;6.60;99.90;;;7.47;100.00;-19981.00;5089738;28;20291;-68
2021/12/13 08:38:39;;;;;;;40.80;23.80;;;6.60;99.90;;;7.50;100.00;-19982.03;5089466;28;20188;-68
2021/12/13 08:41:26;;;;;;;43.53;23.43;;;6.60;99.90;;;7.57;100.00;-19984.59;5089152;28;20588;-65
2021/12/13 08:44:00;;;;;;;38.53;22.43;;;6.60;99.90;;;7.48;100.00;-19981.53;5088724;28;20278;-62
2021/12/13 08:46:41;;;;;;;38.07;22.27;;;6.60;99.90;;;7.63;100.00;-19986.66;5088946;28;20279;-70
2021/12/13 08:49:33;;;;;;;37.93;22.77;;;6.70;99.90;;;7.59;100.00;-19985.09;5089028;28;20548;-70
2021/12/13 08:52:19;;;;;;;41.90;24.80;;;6.70;99.90;;;7.53;100.00;-19983.06;5089379;28;20614;-69
2021/12/13 08:54:59;;;;;;;44.23;27.07;;;6.70;99.90;;;7.57;100.00;-19984.44;5088722;28;20215;-71
2021/12/13 08:57:48;;;;;;;41.70;24.60;;;6.80;99.90;;;7.74;100.00;-19990.41;5089421;28;20204;-74
2021/12/13 09:00:35;;;;;;;42.77;25.10;;;6.80;99.90;;;7.76;100.00;-19990.91;5089165;28;20199;-70
2021/12/13 09:03:24;;;;;;;38.30;24.20;;;6.80;99.90;;;7.69;100.00;-19988.53;5088603;28;20249;-69
2021/12/13 09:06:00;;;;;;;40.87;25.30;;;6.80;99.90;;;7.96;100.00;-19997.75;5080453;28;20205;-76
2021/12/13 09:08:35;;;;;;;37.07;24.17;;;6.90;99.90;;;7.77;100.00;-19991.25;5069290;28;20279;-74
2021/12/13 09:11:18;;;;;;;41.43;24.90;;;6.90;99.90;;;7.76;100.00;-19990.91;5068626;28;20215;-71
2021/12/13 09:13:52;;;;;;;38.07;22.93;;;6.90;99.90;;;7.76;100.00;-19991.09;5068753;28;20196;-70
2021/12/13 09:16:43;;;;;;;33.40;21.97;;;7.00;99.90;;;7.92;100.00;-19996.38;5069152;28;20279;-71
2021/12/13 09:19:19;;;;;;;38.10;23.20;;;7.00;99.90;;;7.81;100.00;-19992.63;5068919;28;20192;-71
2021/12/13 09:21:56;;;;;;;36.77;23.30;;;7.00;99.90;;;7.80;100.00;-19992.28;5082618;28;20717;-70
2021/12/13 09:24:38;;;;;;;36.20;22.87;;;7.00;99.90;;;7.81;100.00;-19992.81;5088832;28;20522;-70
2021/12/13 09:27:38;;;;;;;37.10;23.13;;;7.00;99.90;;;7.82;100.00;-19992.97;5088800;28;20284;-68
2021/12/13 09:30:26;;;;;;;36.73;23.70;;;7.00;99.90;;;7.84;100.00;-19993.66;5088965;28;20260;-71
2021/12/13 09:33:00;;;;;;;33.57;22.37;;;7.00;99.90;;;7.96;100.00;-19997.75;5088325;28;20236;-71
2021/12/13 09:35:38;;;;;;;32.57;22.37;;;7.10;99.90;;;8.01;100.00;-19999.47;5089917;28;20202;-71
2021/12/13 09:38:26;;;;;;;35.80;23.43;;;7.10;99.90;;;8.14;100.00;-20003.91;5092714;28;20192;-70
2021/12/13 09:41:04;;;;;;;31.70;21.37;;;7.20;99.90;;;8.13;100.00;-20003.56;5092618;28;20243;-69
2021/12/13 09:43:48;;;;;;;36.50;21.77;;;7.20;99.90;;;8.16;100.00;-20004.75;5092971;28;20190;-71
2021/12/13 09:46:29;;;;;;;28.77;18.90;;;7.30;99.90;;;8.12;100.00;-20003.38;5092562;28;20230;-71
2021/12/13 09:49:01;;;;;;;33.03;20.97;;;7.30;99.90;;;8.28;100.00;-20008.69;5092322;28;20291;-70
2021/12/13 09:51:37;;;;;;;32.27;20.33;;;7.30;99.90;;;8.24;100.00;-20007.50;5092043;28;20702;-64
2021/12/13 09:54:10;;;;;;;30.83;19.07;;;7.40;99.90;;;8.35;100.00;-20011.09;5092485;28;20639;-67
2021/12/13 09:56:49;;;;;;;29.33;19.90;;;7.40;99.90;;;8.38;100.00;-20012.28;5092473;28;20184;-64
2021/12/13 09:59:25;;;;;;;31.23;18.83;;;7.50;99.90;;;8.53;100.00;-20017.22;5092804;28;20223;-74
2021/12/13 10:01:58;;;;;;;32.47;18.60;;;7.50;99.90;;;8.63;100.00;-20020.81;5093021;28;20287;-72
2021/12/13 10:04:34;;;;;;;26.50;17.40;;;7.60;99.90;;;8.66;100.00;-20021.69;5093552;28;20201;-70
2021/12/13 10:07:11;;;;;;;24.93;16.83;;;7.70;99.90;;;8.81;100.00;-20026.81;5093619;28;20279;-73
2021/12/13 10:09:45;;;;;;;24.93;16.23;;;7.80;99.90;;;8.86;100.00;-20028.34;5093335;28;20217;-74
2021/12/13 10:12:22;;;;;;;25.57;16.37;;;7.80;99.90;;;8.89;100.00;-20029.53;5094246;28;20212;-73
2021/12/13 10:14:57;;;;;;;23.57;16.10;;;7.90;99.90;;;8.90;100.00;-20029.88;5093129;28;20203;-72
2021/12/13 10:17:34;;;;;;;19.77;13.87;;;7.90;99.90;;;8.98;100.00;-20032.59;5091764;28;20628;-73
2021/12/13 10:20:15;;;;;;;20.67;13.50;;;7.90;99.90;;;9.05;100.00;-20035.00;5092444;28;20187;-67
2021/12/13 10:22:44;;;;;;;22.60;14.53;;;8.00;99.90;;;9.31;100.00;-20043.72;5071509;28;20215;-67
2021/12/13 10:25:18;;;;;;;21.03;14.33;;;8.10;99.90;;;9.19;100.00;-20039.78;5071416;28;20668;-67
2021/12/13 10:27:49;;;;;;;21.57;14.37;;;8.20;99.90;;;9.27;100.00;-20042.34;5079211;28;20188;-68
2021/12/13 10:30:28;;;;;;;21.73;14.87;;;8.20;99.90;;;9.11;100.00;-20036.88;5092225;28;20224;-68
2021/12/13 10:32:58;;;;;;;20.33;13.27;;;8.20;99.90;;;9.17;100.00;-20038.94;5091176;28;20318;-69
2021/12/13 10:35:31;;;;;;;19.37;13.50;;;8.20;99.90;;;9.08;100.00;-20036.03;5091950;28;20184;-69
2021/12/13 10:38:05;;;;;;;20.17;13.37;;;8.20;99.90;;;9.03;100.00;-20034.16;5091396;28;20180;-63
2021/12/13 10:40:38;;;;;;;22.90;14.07;;;8.10;99.90;;;9.02;100.00;-20033.97;5091185;28;20188;-72
2021/12/13 10:43:13;;;;;;;23.07;14.97;;;8.10;99.90;;;9.07;100.00;-20035.50;5090420;28;20733;-71
2021/12/13 10:45:49;;;;;;;24.63;15.70;;;8.20;99.90;;;9.07;100.00;-20035.69;5082234;28;20211;-71
2021/12/13 10:48:25;;;;;;;23.30;14.63;;;8.10;99.90;;;8.96;100.00;-20031.94;5090079;28;20195;-72
2021/12/13 10:51:02;;;;;;;22.77;14.80;;;8.10;99.90;;;9.05;100.00;-20035.00;5091687;28;20310;-71
2021/12/13 10:53:31;;;;;;;23.43;15.50;;;8.10;99.90;;;9.20;100.00;-20040.13;5091183;28;20649;-70
2021/12/13 10:56:06;;;;;;;24.20;15.43;;;8.20;99.90;;;9.19;100.00;-20039.63;5091234;28;20192;-70
2021/12/13 10:58:42;;;;;;;25.37;16.00;;;8.20;99.90;;;9.21;100.00;-20040.47;5090723;28;20294;-71